Terminal Aerodrome Forecast
Issued by NWS Wilmington, OH

Current Version | Previous Version | Text Only | Print | Product List | Glossary Off
Versions: 1 2 3 4 5 6 7 8 9 10 11 12 13 14 15 16 17 18 19 20 21 22 23

511
FTUS41 KILN 222053 AAA
TAFCVG
TAF AMD
KCVG 222053Z 2221/2324 VRB03KT P6SM SCT060
     FM230000 VRB03KT P6SM SKC
     FM231400 16005KT P6SM FEW040 BKN250=

USA.gov is the U.S. government's official web portal to all federal, state and local government web resources and services.